Platzwetter Flugplatz Wels

Flugwetter Linz LOWL

[Quelle: ADDS]
METAR
LOWL 300220Z AUTO 26009KT 9999 FEW019 BKN020 12/10 Q1018 =
LOWL 292315Z 3000/3024 26007KT 9999 FEW015 SCT030 TX16/3013Z TN09/3024Z PROB40 3000/3008 -RA BKN012 BECMG 3017/3019 VRB02KT
TAF
LOWL 292315Z 3000/3024 26007KT 9999 FEW015 SCT030 TX16/3013Z TN09/3024Z PROB40 3000/3008 -RA BKN012 BECMG 3017/3019 VRB02KT =

Flugwetter Salzburg LOWS

[Quelle: ADDS]
METAR
LOWS 300220Z AUTO 12003KT 090V150 9999 FEW003 BKN036 10/10 Q1019 =
LOWS 292315Z 3000/3024 15005KT 9999 SCT020 BKN030 TX15/3013Z TN08/3024Z TEMPO 3000/3012 4000 -RADZ SCT008 BKN012 PROB30 TEMPO 3000/3009 2500 DZ SCT005 BKN008 TEMPO 3009/3018 03005KT BECMG 3016/3018 SCT030
TAF
LOWS 292315Z 3000/3024 15005KT 9999 SCT020 BKN030 TX15/3013Z TN08/3024Z TEMPO 3000/3012 4000 -RADZ SCT008 BKN012 PROB30 TEMPO 3000/3009 2500 DZ SCT005 BKN008 TEMPO 3009/3018 03005KT BECMG 3016/3018 SCT030 =

Wind - Verlauf

Windrichtung - Verlauf

Temperatur - Verlauf

Relative Luftfeuchtigkeit - Verlauf

Luftdruck - Verlauf

Cookies erleichtern die Bereitstellung unserer Dienste. Mit der Nutzung unserer Dienste erklären Sie sich damit einverstanden, dass wir Cookies verwenden.
Weitere Informationen Ok